Time;durP1;ratioP1;P1;durP2;ratioP2;P2;SDS_P1;SDS_P2;PMS_P1;PMS_P2;Temp;Humidity;BMP_temperature;BMP_pressure;BME280_temperature;BME280_humidity;BME280_pressure;Samples;Min_cycle;Max_cycle;Signal;HPM_P1;HPM_P2
2022/09/15 00:00:36;;;;;;;5.95;5.20;;;;;;;;;;2040527;29;20028;-88
2022/09/15 00:01:38;;;;;;;7.05;5.50;;;;;;;;;;2039456;29;20107;-89
2022/09/15 00:02:39;;;;;;;8.38;5.82;;;;;;;;;;2039598;29;20039;-89
2022/09/15 00:03:40;;;;;;;6.78;5.38;;;;;;;;;;2040332;29;20479;-89
2022/09/15 00:04:40;;;;;;;6.05;5.13;;;;;;;;;;2040268;29;20403;-89
2022/09/15 00:05:41;;;;;;;6.40;5.65;;;;;;;;;;2039460;29;20032;-89
2022/09/15 00:06:41;;;;;;;6.47;5.38;;;;;;;;;;2039340;29;20037;-89
2022/09/15 00:07:41;;;;;;;8.25;5.68;;;;;;;;;;2039539;29;20090;-88
2022/09/15 00:08:42;;;;;;;6.32;5.57;;;;;;;;;;2039534;29;20428;-89
2022/09/15 00:09:42;;;;;;;7.93;6.00;;;;;;;;;;2041931;29;20042;-88
2022/09/15 00:10:52;;;;;;;6.15;5.25;;;;;;;;;;2036252;29;20028;-89
2022/09/15 00:11:52;;;;;;;5.80;4.88;;;;;;;;;;2038913;29;20102;-89
2022/09/15 00:12:54;;;;;;;6.95;5.90;;;;;;;;;;2031836;29;20066;-89
2022/09/15 00:13:57;;;;;;;6.18;5.35;;;;;;;;;;2032213;29;20031;-88
2022/09/15 00:14:58;;;;;;;7.55;5.97;;;;;;;;;;2040326;29;20114;-89
2022/09/15 00:16:07;;;;;;;6.22;5.50;;;;;;;;;;1938479;29;10001039;-88
2022/09/15 00:17:07;;;;;;;6.60;5.10;;;;;;;;;;2040109;29;20245;-89
2022/09/15 00:18:08;;;;;;;6.28;5.68;;;;;;;;;;2040228;29;20027;-89
2022/09/15 00:19:08;;;;;;;7.80;5.53;;;;;;;;;;2040569;29;20035;-90
2022/09/15 00:20:09;;;;;;;7.60;5.65;;;;;;;;;;2031770;29;20059;-90
2022/09/15 00:21:13;;;;;;;7.10;5.57;;;;;;;;;;2031702;29;20071;-89
2022/09/15 00:22:14;;;;;;;9.43;5.57;;;;;;;;;;2031403;29;20310;-89
2022/09/15 00:23:16;;;;;;;6.90;5.68;;;;;;;;;;2031599;29;20028;-88
2022/09/15 00:24:16;;;;;;;5.53;4.95;;;;;;;;;;2039555;29;20427;-89
2022/09/15 00:25:17;;;;;;;6.63;5.60;;;;;;;;;;2039786;29;20028;-89
2022/09/15 00:26:21;;;;;;;7.32;5.93;;;;;;;;;;2041800;29;20032;-89
2022/09/15 00:27:22;;;;;;;8.73;5.82;;;;;;;;;;2033929;29;20429;-89
2022/09/15 00:28:22;;;;;;;7.28;5.85;;;;;;;;;;2033378;29;20102;-88
2022/09/15 00:29:22;;;;;;;6.32;5.28;;;;;;;;;;2033600;29;20071;-89
2022/09/15 00:30:23;;;;;;;5.75;5.13;;;;;;;;;;2031667;29;20043;-88
2022/09/15 00:31:26;;;;;;;7.53;5.78;;;;;;;;;;2039991;29;20146;-88
2022/09/15 00:32:28;;;;;;;7.60;5.50;;;;;;;;;;2040139;29;20094;-88
2022/09/15 00:33:29;;;;;;;6.82;5.60;;;;;;;;;;2031510;29;20024;-88
2022/09/15 00:34:29;;;;;;;5.97;5.38;;;;;;;;;;2031533;29;20036;-88
2022/09/15 00:35:30;;;;;;;7.07;5.68;;;;;;;;;;2039752;29;20131;-87
2022/09/15 00:36:31;;;;;;;7.68;6.10;;;;;;;;;;2039758;29;20062;-88
2022/09/15 00:37:32;;;;;;;6.88;5.68;;;;;;;;;;2040131;29;20043;-88
2022/09/15 00:38:34;;;;;;;6.03;5.43;;;;;;;;;;2031483;29;20032;-88
2022/09/15 00:39:34;;;;;;;5.90;5.25;;;;;;;;;;2031897;29;20032;-90
2022/09/15 00:40:46;;;;;;;6.82;5.68;;;;;;;;;;2031372;29;20444;-90
2022/09/15 00:41:47;;;;;;;6.78;4.95;;;;;;;;;;2032872;29;20032;-90
2022/09/15 00:42:47;;;;;;;7.40;5.65;;;;;;;;;;2039354;29;20065;-87
2022/09/15 00:44:17;;;;;;;6.60;5.65;;;;;;;;;;2031523;29;20086;-90
2022/09/15 00:45:17;;;;;;;7.10;5.72;;;;;;;;;;2031504;29;20032;-90
2022/09/15 00:46:24;;;;;;;6.28;5.68;;;;;;;;;;2031432;29;20443;-89
2022/09/15 00:47:34;;;;;;;6.93;6.20;;;;;;;;;;2032371;29;20092;-88
2022/09/15 00:48:39;;;;;;;7.30;5.72;;;;;;;;;;2031464;29;20183;-90
2022/09/15 00:49:40;;;;;;;8.52;6.10;;;;;;;;;;2024122;29;20032;-89
2022/09/15 00:50:44;;;;;;;6.28;5.68;;;;;;;;;;2031529;29;20039;-90
2022/09/15 00:52:09;;;;;;;7.93;5.72;;;;;;;;;;2031350;29;20524;-89
2022/09/15 00:53:11;;;;;;;6.50;5.20;;;;;;;;;;2034650;29;20391;-88
2022/09/15 00:54:40;;;;;;;7.88;5.68;;;;;;;;;;2031327;29;20047;-90
2022/09/15 00:55:46;;;;;;;6.50;5.38;;;;;;;;;;2027168;29;20028;-89
2022/09/15 00:56:50;;;;;;;8.02;6.05;;;;;;;;;;2032256;29;20038;-89
2022/09/15 00:57:56;;;;;;;5.80;5.20;;;;;;;;;;2031372;29;20083;-89
2022/09/15 00:59:01;;;;;;;6.40;4.82;;;;;;;;;;2031413;29;20073;-89
2022/09/15 01:00:06;;;;;;;7.30;5.40;;;;;;;;;;2031948;29;20039;-89
2022/09/15 01:01:07;;;;;;;7.35;5.57;;;;;;;;;;2031176;29;20107;-90
2022/09/15 01:02:16;;;;;;;6.15;5.18;;;;;;;;;;2031437;29;20535;-90
2022/09/15 01:03:17;;;;;;;7.28;5.38;;;;;;;;;;2031261;29;20040;-90
2022/09/15 01:04:17;;;;;;;5.72;5.05;;;;;;;;;;2031349;29;20028;-90
2022/09/15 01:05:21;;;;;;;6.13;5.40;;;;;;;;;;2038940;29;20087;-90
2022/09/15 01:06:32;;;;;;;6.00;5.38;;;;;;;;;;2031254;29;20254;-89
2022/09/15 01:07:43;;;;;;;;;;;;;;;;;;2033001;29;20076;-89
2022/09/15 01:08:55;;;;;;;6.93;5.40;;;;;;;;;;2039390;29;19911;-90
2022/09/15 01:09:59;;;;;;;6.00;5.07;;;;;;;;;;2039633;29;20043;-90
2022/09/15 01:11:00;;;;;;;5.75;4.90;;;;;;;;;;2039745;29;20506;-90
2022/09/15 01:12:01;;;;;;;6.10;5.35;;;;;;;;;;2031063;29;20016;-90
2022/09/15 01:13:05;;;;;;;6.93;5.43;;;;;;;;;;2031443;29;20118;-90
2022/09/15 01:14:07;;;;;;;5.72;4.78;;;;;;;;;;2039146;29;20061;-90
2022/09/15 01:15:07;;;;;;;5.63;5.03;;;;;;;;;;2031283;29;20039;-89
2022/09/15 01:16:26;;;;;;;5.43;4.80;;;;;;;;;;2023238;29;20016;-89
2022/09/15 01:17:54;;;;;;;5.72;4.60;;;;;;;;;;2033140;29;20039;-89
2022/09/15 01:19:31;;;;;;;7.78;5.13;;;;;;;;;;1855508;29;10001893;-89
2022/09/15 01:20:52;;;;;;;5.32;4.57;;;;;;;;;;2035766;29;20483;-89
2022/09/15 01:21:58;;;;;;;5.43;4.78;;;;;;;;;;2031083;29;20038;-89
2022/09/15 01:23:17;;;;;;;5.82;4.90;;;;;;;;;;2024069;29;20165;-89
2022/09/15 01:24:57;;;;;;;6.35;5.15;;;;;;;;;;2031097;29;20031;-89
2022/09/15 01:26:27;;;;;;;5.47;4.97;;;;;;;;;;2028345;29;20111;-89
2022/09/15 01:27:46;;;;;;;6.13;5.07;;;;;;;;;;2035127;29;20028;-90
2022/09/15 01:28:58;;;;;;;6.38;4.40;;;;;;;;;;2031011;29;20177;-89
2022/09/15 01:30:11;;;;;;;4.93;4.43;;;;;;;;;;1684679;29;10218478;-90
2022/09/15 01:33:11;;;;;;;5.88;5.18;;;;;;;;;;2039560;29;20031;-89
2022/09/15 01:34:17;;;;;;;5.32;4.82;;;;;;;;;;2030961;29;20028;-89
2022/09/15 01:35:35;;;;;;;6.68;5.20;;;;;;;;;;2031678;29;20115;-89
2022/09/15 01:36:51;;;;;;;5.70;5.10;;;;;;;;;;2031025;29;20048;-90
2022/09/15 01:38:00;;;;;;;5.93;4.55;;;;;;;;;;2033216;29;20594;-89
2022/09/15 01:39:15;;;;;;;5.20;4.63;;;;;;;;;;2039313;29;20137;-90
2022/09/15 01:40:17;;;;;;;6.53;4.93;;;;;;;;;;2039498;29;20039;-89
2022/09/15 01:41:34;;;;;;;5.43;4.60;;;;;;;;;;2039505;29;20024;-89
2022/09/15 01:42:36;;;;;;;7.70;5.15;;;;;;;;;;2031063;29;20052;-89
2022/09/15 01:43:48;;;;;;;5.72;5.18;;;;;;;;;;2031296;29;20107;-88
2022/09/15 01:44:56;;;;;;;5.22;4.53;;;;;;;;;;1773049;29;10379563;-89
2022/09/15 01:45:58;;;;;;;6.40;5.00;;;;;;;;;;2038816;29;20357;-89
2022/09/15 01:47:03;;;;;;;5.60;4.95;;;;;;;;;;2038669;29;20474;-89
2022/09/15 01:48:06;;;;;;;5.18;4.47;;;;;;;;;;2038773;29;20606;-88
2022/09/15 01:49:09;;;;;;;5.65;4.57;;;;;;;;;;2039459;29;20023;-88
2022/09/15 01:50:14;;;;;;;6.18;4.68;;;;;;;;;;2030826;29;20028;-87
2022/09/15 01:51:15;;;;;;;5.07;4.57;;;;;;;;;;2023586;29;20024;-87
2022/09/15 01:52:19;;;;;;;6.57;4.80;;;;;;;;;;2031008;29;20491;-87
2022/09/15 01:53:22;;;;;;;5.85;4.80;;;;;;;;;;2030811;29;20068;-88
2022/09/15 01:54:28;;;;;;;7.13;4.90;;;;;;;;;;2031107;29;20514;-88
2022/09/15 01:55:36;;;;;;;5.38;4.55;;;;;;;;;;2039518;29;20050;-88
2022/09/15 01:56:38;;;;;;;5.50;4.72;;;;;;;;;;2039574;29;20023;-88
2022/09/15 01:57:38;;;;;;;4.80;4.32;;;;;;;;;;2030831;29;20028;-87
2022/09/15 01:58:40;;;;;;;5.28;4.25;;;;;;;;;;2030982;29;20020;-88
2022/09/15 01:59:40;;;;;;;4.75;3.97;;;;;;;;;;2030884;29;20063;-88
2022/09/15 02:00:48;;;;;;;5.60;4.72;;;;;;;;;;2038840;29;20032;-88
2022/09/15 02:01:57;;;;;;;5.28;4.35;;;;;;;;;;2030861;29;20035;-88
2022/09/15 02:03:04;;;;;;;5.40;4.43;;;;;;;;;;2032100;29;20438;-88
2022/09/15 02:04:11;;;;;;;4.85;4.20;;;;;;;;;;2030809;29;20103;-88
2022/09/15 02:05:33;;;;;;;6.40;4.70;;;;;;;;;;2031603;29;20325;-89
2022/09/15 02:06:44;;;;;;;4.72;4.22;;;;;;;;;;2030892;29;20075;-89
2022/09/15 02:07:55;;;;;;;5.45;4.40;;;;;;;;;;2032227;29;20448;-89
2022/09/15 02:09:01;;;;;;;4.95;4.45;;;;;;;;;;2038920;29;20024;-88
2022/09/15 02:10:14;;;;;;;5.20;4.70;;;;;;;;;;2030699;29;20032;-89
2022/09/15 02:11:17;;;;;;;7.63;4.50;;;;;;;;;;2033255;29;20056;-88
2022/09/15 02:12:34;;;;;;;7.13;4.68;;;;;;;;;;1699668;29;10001202;-88
2022/09/15 02:13:47;;;;;;;5.65;4.55;;;;;;;;;;2032355;29;20031;-88
2022/09/15 02:15:11;;;;;;;5.38;4.65;;;;;;;;;;2035243;29;20028;-87
2022/09/15 02:16:18;;;;;;;5.60;3.65;;;;;;;;;;2030709;29;20066;-87
2022/09/15 02:17:19;;;;;;;5.28;4.38;;;;;;;;;;2031818;29;20024;-88
2022/09/15 02:18:34;;;;;;;4.82;4.32;;;;;;;;;;2039326;29;20619;-88
2022/09/15 02:19:40;;;;;;;5.55;4.35;;;;;;;;;;2030791;29;20107;-88
2022/09/15 02:20:58;;;;;;;4.80;4.30;;;;;;;;;;2031592;29;20083;-88
2022/09/15 02:22:09;;;;;;;5.10;4.60;;;;;;;;;;2030881;29;20020;-88
2022/09/15 02:23:20;;;;;;;6.32;4.78;;;;;;;;;;2030930;29;20032;-88
2022/09/15 02:24:25;;;;;;;5.53;4.10;;;;;;;;;;2032116;29;20533;-88
2022/09/15 02:25:37;;;;;;;5.50;4.65;;;;;;;;;;2030737;29;20043;-89
2022/09/15 02:26:40;;;;;;;4.72;3.95;;;;;;;;;;2032320;29;20047;-89
2022/09/15 02:27:48;;;;;;;5.30;3.92;;;;;;;;;;2039358;29;20031;-88
2022/09/15 02:28:50;;;;;;;12.93;5.00;;;;;;;;;;2030714;29;20068;-88
2022/09/15 02:29:54;;;;;;;5.10;4.05;;;;;;;;;;2031034;29;20040;-88
2022/09/15 02:30:57;;;;;;;4.63;4.10;;;;;;;;;;2030553;29;20119;-89
2022/09/15 02:32:01;;;;;;;5.65;4.18;;;;;;;;;;2031113;29;20034;-88
2022/09/15 02:33:05;;;;;;;5.50;4.38;;;;;;;;;;2030688;29;20043;-88
2022/09/15 02:34:16;;;;;;;5.35;3.97;;;;;;;;;;2031411;29;20404;-88
2022/09/15 02:35:16;;;;;;;4.72;4.20;;;;;;;;;;2030656;29;20096;-89
2022/09/15 02:36:19;;;;;;;4.35;3.63;;;;;;;;;;2031032;29;20413;-89
2022/09/15 02:37:21;;;;;;;4.60;3.85;;;;;;;;;;2039322;29;20023;-89
2022/09/15 02:38:22;;;;;;;3.42;3.13;;;;;;;;;;2039464;29;20075;-89
2022/09/15 02:39:30;;;;;;;4.65;3.40;;;;;;;;;;2039200;29;20114;-89
2022/09/15 02:40:31;;;;;;;4.30;3.53;;;;;;;;;;2030876;29;20036;-89
2022/09/15 02:41:34;;;;;;;4.30;3.63;;;;;;;;;;2030873;29;20122;-87
2022/09/15 02:42:34;;;;;;;3.47;3.17;;;;;;;;;;2038743;29;20051;-89
2022/09/15 02:43:44;;;;;;;5.10;4.28;;;;;;;;;;2030657;29;20095;-89
2022/09/15 02:44:44;;;;;;;4.32;3.50;;;;;;;;;;2032151;29;20527;-89
2022/09/15 02:45:45;;;;;;;4.25;3.70;;;;;;;;;;2030767;29;20043;-89
2022/09/15 02:46:49;;;;;;;4.13;3.72;;;;;;;;;;2030771;29;20028;-88
2022/09/15 02:47:49;;;;;;;3.85;3.53;;;;;;;;;;2039317;29;20042;-90
2022/09/15 02:48:50;;;;;;;4.80;3.60;;;;;;;;;;2030785;29;20534;-89
2022/09/15 02:49:50;;;;;;;4.70;4.18;;;;;;;;;;2022790;29;20052;-87
2022/09/15 02:50:51;;;;;;;4.90;4.15;;;;;;;;;;2030760;29;20128;-90
2022/09/15 02:51:51;;;;;;;4.43;3.70;;;;;;;;;;2039177;29;20051;-89
2022/09/15 02:52:56;;;;;;;5.78;3.45;;;;;;;;;;2039349;29;20329;-88
2022/09/15 02:53:56;;;;;;;5.10;3.63;;;;;;;;;;2038311;29;20087;-88
2022/09/15 02:54:58;;;;;;;4.18;3.63;;;;;;;;;;2038627;29;20024;-88
2022/09/15 02:55:58;;;;;;;4.47;4.07;;;;;;;;;;2038372;29;20082;-88
2022/09/15 02:56:59;;;;;;;4.70;4.20;;;;;;;;;;2038541;29;20137;-89
2022/09/15 02:58:00;;;;;;;7.15;4.40;;;;;;;;;;2039321;29;20038;-89
2022/09/15 02:59:00;;;;;;;6.75;4.32;;;;;;;;;;2031034;29;20028;-88
2022/09/15 03:00:12;;;;;;;5.70;4.57;;;;;;;;;;2032218;29;20035;-89
2022/09/15 03:01:14;;;;;;;4.43;3.97;;;;;;;;;;2040826;29;20019;-88
2022/09/15 03:02:15;;;;;;;5.75;4.80;;;;;;;;;;2040743;29;20479;-89
2022/09/15 03:03:17;;;;;;;4.93;4.10;;;;;;;;;;2032356;29;20059;-89
2022/09/15 03:04:18;;;;;;;5.75;4.22;;;;;;;;;;2032204;29;20607;-89
2022/09/15 03:05:25;;;;;;;6.10;4.50;;;;;;;;;;2032256;29;20163;-90
2022/09/15 03:06:29;;;;;;;5.85;4.38;;;;;;;;;;2031990;29;20078;-89
2022/09/15 03:07:30;;;;;;;7.20;4.15;;;;;;;;;;2024936;29;20234;-89
2022/09/15 03:08:31;;;;;;;6.38;4.20;;;;;;;;;;2032277;29;20667;-89
2022/09/15 03:09:31;;;;;;;7.68;3.72;;;;;;;;;;2040570;29;20032;-88
2022/09/15 03:10:32;;;;;;;5.63;3.80;;;;;;;;;;2032112;29;20050;-89
2022/09/15 03:11:33;;;;;;;4.22;3.67;;;;;;;;;;2032138;29;20028;-88
2022/09/15 03:12:42;;;;;;;3.80;3.50;;;;;;;;;;2039780;29;20098;-88
2022/09/15 03:13:43;;;;;;;3.80;3.40;;;;;;;;;;2040143;29;20031;-88
2022/09/15 03:14:43;;;;;;;5.15;4.15;;;;;;;;;;2039864;29;20054;-88
2022/09/15 03:15:43;;;;;;;8.70;4.40;;;;;;;;;;2032003;29;20032;-89
2022/09/15 03:16:44;;;;;;;6.97;4.18;;;;;;;;;;2032170;29;20032;-89
2022/09/15 03:17:45;;;;;;;5.18;3.67;;;;;;;;;;2040535;29;20759;-89
2022/09/15 03:18:47;;;;;;;4.97;3.92;;;;;;;;;;2040662;29;20035;-88
2022/09/15 03:19:48;;;;;;;7.68;3.75;;;;;;;;;;1691442;29;10259126;-89
2022/09/15 03:20:55;;;;;;;6.75;3.53;;;;;;;;;;2040582;29;20278;-89
2022/09/15 03:21:55;;;;;;;4.18;3.58;;;;;;;;;;2040529;29;20474;-88
2022/09/15 03:22:56;;;;;;;6.35;4.60;;;;;;;;;;2040578;29;20023;-88
2022/09/15 03:23:57;;;;;;;4.25;3.85;;;;;;;;;;2031898;29;20119;-88
2022/09/15 03:24:58;;;;;;;7.82;4.10;;;;;;;;;;2032052;29;20032;-89
2022/09/15 03:25:58;;;;;;;6.15;3.42;;;;;;;;;;2031881;29;20024;-88
2022/09/15 03:26:59;;;;;;;4.47;3.67;;;;;;;;;;2032205;29;20114;-88
2022/09/15 03:27:59;;;;;;;5.40;3.90;;;;;;;;;;2040432;29;20226;-89
2022/09/15 03:28:59;;;;;;;5.80;4.40;;;;;;;;;;2039751;29;20028;-89
2022/09/15 03:30:00;;;;;;;6.57;3.90;;;;;;;;;;2031765;29;20035;-88
2022/09/15 03:31:01;;;;;;;5.72;3.55;;;;;;;;;;2031972;29;20496;-88
2022/09/15 03:32:02;;;;;;;5.15;4.50;;;;;;;;;;2041269;29;20038;-88
2022/09/15 03:33:02;;;;;;;4.80;3.85;;;;;;;;;;2034513;29;20570;-89
2022/09/15 03:34:03;;;;;;;8.57;3.97;;;;;;;;;;2033808;29;20492;-88
2022/09/15 03:35:04;;;;;;;5.97;4.45;;;;;;;;;;2040424;29;20027;-88
2022/09/15 03:36:05;;;;;;;5.93;4.55;;;;;;;;;;2040261;29;20407;-89
2022/09/15 03:37:06;;;;;;;4.40;3.65;;;;;;;;;;2031877;29;20569;-87
2022/09/15 03:38:07;;;;;;;4.65;4.10;;;;;;;;;;2024024;29;20028;-88
2022/09/15 03:39:08;;;;;;;4.90;4.18;;;;;;;;;;2032011;29;20036;-89
2022/09/15 03:40:09;;;;;;;4.93;3.78;;;;;;;;;;2031879;29;20128;-89
2022/09/15 03:41:11;;;;;;;5.05;3.88;;;;;;;;;;2031963;29;20571;-89
2022/09/15 03:42:11;;;;;;;4.30;3.80;;;;;;;;;;2031850;29;20491;-89
2022/09/15 03:43:12;;;;;;;8.00;4.45;;;;;;;;;;2031842;29;20059;-88
2022/09/15 03:44:12;;;;;;;5.00;4.30;;;;;;;;;;2024020;29;20025;-87
2022/09/15 03:45:12;;;;;;;6.35;3.55;;;;;;;;;;2031832;29;20530;-89
2022/09/15 03:46:13;;;;;;;6.88;4.50;;;;;;;;;;2039691;29;20030;-89
2022/09/15 03:47:13;;;;;;;5.65;3.88;;;;;;;;;;2040520;29;20024;-90
2022/09/15 03:48:16;;;;;;;5.05;3.38;;;;;;;;;;1769729;29;10002621;-90
2022/09/15 03:49:17;;;;;;;6.03;3.92;;;;;;;;;;2032519;29;20744;-90
2022/09/15 03:50:18;;;;;;;4.80;4.05;;;;;;;;;;2031906;29;20484;-90
2022/09/15 03:51:19;;;;;;;5.53;4.22;;;;;;;;;;2032143;29;20483;-89
2022/09/15 03:52:19;;;;;;;7.47;4.95;;;;;;;;;;2039735;29;20115;-89
2022/09/15 03:53:20;;;;;;;7.15;5.75;;;;;;;;;;1687370;29;10355108;-88
2022/09/15 03:54:20;;;;;;;5.72;4.88;;;;;;;;;;2031773;29;20036;-89
2022/09/15 03:55:21;;;;;;;9.32;4.35;;;;;;;;;;2024270;29;20035;-90
2022/09/15 03:56:31;;;;;;;4.72;4.25;;;;;;;;;;2031957;29;20035;-90
2022/09/15 03:57:31;;;;;;;4.17;3.77;;;;;;;;;;2032124;29;20044;-90
2022/09/15 03:58:32;;;;;;;4.80;3.95;;;;;;;;;;2032105;29;20051;-90
2022/09/15 03:59:32;;;;;;;5.18;4.03;;;;;;;;;;2032139;29;20028;-90
2022/09/15 04:00:33;;;;;;;7.43;3.45;;;;;;;;;;2032066;29;20028;-90
2022/09/15 04:01:34;;;;;;;4.55;3.30;;;;;;;;;;2032026;29;20067;-90
2022/09/15 04:02:34;;;;;;;4.53;3.53;;;;;;;;;;2031995;29;20113;-90
2022/09/15 04:03:35;;;;;;;3.42;3.13;;;;;;;;;;2024606;29;20554;-90
2022/09/15 04:04:35;;;;;;;3.85;3.45;;;;;;;;;;2031889;29;20031;-90
2022/09/15 04:05:36;;;;;;;6.47;3.60;;;;;;;;;;2039552;29;20083;-89
2022/09/15 04:06:37;;;;;;;4.22;3.78;;;;;;;;;;2031683;29;20032;-89
2022/09/15 04:07:39;;;;;;;3.95;3.58;;;;;;;;;;2031733;29;20028;-89
2022/09/15 04:08:40;;;;;;;4.00;3.55;;;;;;;;;;2031609;29;20028;-89
2022/09/15 04:09:40;;;;;;;4.32;3.65;;;;;;;;;;2031516;29;20032;-88
2022/09/15 04:10:41;;;;;;;4.50;3.35;;;;;;;;;;2025319;29;20435;-87
2022/09/15 04:11:41;;;;;;;4.47;3.88;;;;;;;;;;2037218;29;20032;-86
2022/09/15 04:12:43;;;;;;;4.93;3.25;;;;;;;;;;2036361;29;20099;-89
2022/09/15 04:13:44;;;;;;;4.35;3.67;;;;;;;;;;1684113;29;10259097;-88
2022/09/15 04:14:45;;;;;;;4.95;3.83;;;;;;;;;;2031822;29;20063;-89
2022/09/15 04:15:46;;;;;;;6.65;4.15;;;;;;;;;;2024138;29;20052;-88
2022/09/15 04:16:46;;;;;;;4.20;3.80;;;;;;;;;;2031995;29;20035;-90
2022/09/15 04:17:47;;;;;;;5.15;4.68;;;;;;;;;;2031662;29;20223;-90
2022/09/15 04:18:49;;;;;;;5.55;4.30;;;;;;;;;;2031860;29;20467;-90
2022/09/15 04:19:49;;;;;;;7.13;5.15;;;;;;;;;;2024311;29;20024;-89
2022/09/15 04:20:50;;;;;;;10.85;4.78;;;;;;;;;;2024203;29;20364;-90
2022/09/15 04:21:50;;;;;;;8.90;5.50;;;;;;;;;;2031773;29;20028;-90
2022/09/15 04:22:51;;;;;;;7.57;5.75;;;;;;;;;;2024150;29;20400;-91
2022/09/15 04:23:52;;;;;;;9.77;6.55;;;;;;;;;;2031921;29;20017;-89
2022/09/15 04:24:53;;;;;;;9.02;6.47;;;;;;;;;;2031652;29;20361;-89
2022/09/15 04:25:55;;;;;;;8.90;5.75;;;;;;;;;;2031823;29;20027;-89
2022/09/15 04:26:56;;;;;;;6.15;5.10;;;;;;;;;;2040253;29;20103;-89
2022/09/15 04:27:56;;;;;;;11.07;6.13;;;;;;;;;;2039726;29;20059;-89
2022/09/15 04:28:58;;;;;;;8.20;6.75;;;;;;;;;;2039985;29;20522;-90
2022/09/15 04:29:58;;;;;;;13.73;7.18;;;;;;;;;;2031529;29;20103;-90
2022/09/15 04:31:07;;;;;;;6.25;5.45;;;;;;;;;;2024069;29;20465;-90
2022/09/15 04:32:08;;;;;;;7.25;5.20;;;;;;;;;;2024768;29;20551;-90
2022/09/15 04:33:08;;;;;;;9.57;5.90;;;;;;;;;;2031724;29;20099;-91
2022/09/15 04:34:09;;;;;;;7.07;6.00;;;;;;;;;;2031487;29;20478;-90
2022/09/15 04:35:09;;;;;;;6.00;5.07;;;;;;;;;;2031870;29;20054;-91
2022/09/15 04:36:13;;;;;;;7.45;5.90;;;;;;;;;;2031862;29;20056;-90
2022/09/15 04:37:14;;;;;;;7.70;6.45;;;;;;;;;;2032336;29;20024;-91
2022/09/15 04:38:14;;;;;;;8.23;5.88;;;;;;;;;;2039318;29;20059;-90
2022/09/15 04:39:15;;;;;;;11.68;7.10;;;;;;;;;;2039523;29;20035;-90
2022/09/15 04:40:15;;;;;;;10.15;7.40;;;;;;;;;;2031304;29;20468;-90
2022/09/15 04:41:17;;;;;;;6.45;5.25;;;;;;;;;;2031704;29;20031;-90
2022/09/15 04:42:20;;;;;;;6.95;4.85;;;;;;;;;;2039150;29;20458;-90
2022/09/15 04:43:21;;;;;;;6.53;5.03;;;;;;;;;;2031791;29;20039;-91
2022/09/15 04:44:21;;;;;;;6.82;5.75;;;;;;;;;;2031604;29;20020;-89
2022/09/15 04:45:22;;;;;;;9.80;5.35;;;;;;;;;;2031503;29;20051;-89
2022/09/15 04:46:22;;;;;;;7.88;5.53;;;;;;;;;;2039234;29;20031;-90
2022/09/15 04:47:23;;;;;;;7.15;5.45;;;;;;;;;;2031399;29;20043;-88
2022/09/15 04:48:24;;;;;;;7.78;4.60;;;;;;;;;;2031756;29;20107;-89
2022/09/15 04:49:25;;;;;;;5.43;4.50;;;;;;;;;;2039788;29;20479;-89
2022/09/15 04:50:26;;;;;;;9.30;5.50;;;;;;;;;;2031461;29;20024;-90
2022/09/15 04:51:26;;;;;;;8.18;5.53;;;;;;;;;;2023455;29;20020;-89
2022/09/15 04:52:26;;;;;;;7.35;4.82;;;;;;;;;;2031297;29;20621;-89
2022/09/15 04:53:27;;;;;;;7.10;4.68;;;;;;;;;;2031230;29;20511;-89
2022/09/15 04:54:27;;;;;;;9.15;4.72;;;;;;;;;;2031258;29;20451;-90
2022/09/15 04:55:30;;;;;;;7.07;4.57;;;;;;;;;;2039094;29;20027;-90
2022/09/15 04:56:31;;;;;;;8.25;4.60;;;;;;;;;;2039093;29;20102;-90
2022/09/15 04:57:32;;;;;;;9.55;4.72;;;;;;;;;;2031376;29;20574;-90
2022/09/15 04:58:37;;;;;;;8.90;4.70;;;;;;;;;;2031352;29;20111;-90
2022/09/15 04:59:38;;;;;;;6.20;3.97;;;;;;;;;;2031162;29;20434;-90
2022/09/15 05:00:42;;;;;;;8.70;4.70;;;;;;;;;;2031601;29;20024;-91
2022/09/15 05:01:43;;;;;;;7.90;4.45;;;;;;;;;;2031131;29;20028;-90
2022/09/15 05:02:44;;;;;;;5.65;4.43;;;;;;;;;;2023514;29;20047;-89
2022/09/15 05:03:45;;;;;;;5.03;4.30;;;;;;;;;;2031369;29;20371;-91
2022/09/15 05:04:47;;;;;;;7.53;4.78;;;;;;;;;;2031421;29;20110;-90
2022/09/15 05:05:48;;;;;;;8.07;4.65;;;;;;;;;;2031558;29;20024;-90
2022/09/15 05:06:49;;;;;;;6.75;4.03;;;;;;;;;;2031381;29;20464;-89
2022/09/15 05:07:49;;;;;;;7.55;4.18;;;;;;;;;;2031444;29;20020;-89
2022/09/15 05:08:53;;;;;;;11.20;4.72;;;;;;;;;;2031559;29;20114;-91
2022/09/15 05:09:54;;;;;;;8.90;4.85;;;;;;;;;;2039503;29;20415;-89
2022/09/15 05:11:06;;;;;;;9.55;4.70;;;;;;;;;;2031229;29;20103;-90
2022/09/15 05:12:07;;;;;;;6.38;4.38;;;;;;;;;;2032697;29;20072;-90
2022/09/15 05:13:07;;;;;;;4.85;3.83;;;;;;;;;;2031339;29;20036;-89
2022/09/15 05:14:09;;;;;;;6.05;3.95;;;;;;;;;;2023292;29;20028;-89
2022/09/15 05:15:10;;;;;;;4.82;4.05;;;;;;;;;;2023561;29;20100;-89
2022/09/15 05:16:18;;;;;;;9.32;5.03;;;;;;;;;;2031284;29;20519;-88
2022/09/15 05:17:29;;;;;;;5.28;4.07;;;;;;;;;;2031260;29;20396;-89
2022/09/15 05:18:30;;;;;;;;;;;;;;;;;;2033319;29;20517;-88
2022/09/15 05:19:53;;;;;;;;;;;;;;;;;;2031630;29;19950;-88
2022/09/15 05:23:01;;;;;;;4.32;3.83;;;;;;;;;;2022399;29;20051;-90
2022/09/15 05:24:01;;;;;;;7.05;4.70;;;;;;;;;;2025900;29;20028;-90
2022/09/15 05:25:02;;;;;;;4.60;3.90;;;;;;;;;;2039596;29;20024;-89
2022/09/15 05:26:06;;;;;;;4.95;4.10;;;;;;;;;;2031233;29;20031;-91
2022/09/15 05:27:06;;;;;;;5.63;4.55;;;;;;;;;;2031479;29;20020;-91
2022/09/15 05:28:06;;;;;;;5.07;4.43;;;;;;;;;;2039183;29;20130;-91
2022/09/15 05:29:07;;;;;;;8.05;4.72;;;;;;;;;;2031085;29;20409;-90
2022/09/15 05:30:08;;;;;;;7.10;4.68;;;;;;;;;;2031074;29;20495;-90
2022/09/15 05:31:13;;;;;;;4.38;3.95;;;;;;;;;;2031051;29;20020;-90
2022/09/15 05:32:13;;;;;;;5.05;4.32;;;;;;;;;;2031788;29;20388;-91
2022/09/15 05:33:14;;;;;;;7.35;4.93;;;;;;;;;;2039577;29;20110;-90
2022/09/15 05:34:14;;;;;;;5.25;4.75;;;;;;;;;;2039551;29;20447;-90
2022/09/15 05:35:15;;;;;;;7.22;4.80;;;;;;;;;;2039603;29;20111;-91
2022/09/15 05:36:17;;;;;;;6.45;4.78;;;;;;;;;;2031152;29;20036;-90
2022/09/15 05:37:20;;;;;;;4.35;3.95;;;;;;;;;;2031329;29;20039;-90
2022/09/15 05:38:21;;;;;;;4.40;4.00;;;;;;;;;;2031075;29;20171;-91
2022/09/15 05:39:22;;;;;;;4.30;3.88;;;;;;;;;;2031166;29;20028;-91
2022/09/15 05:40:22;;;;;;;5.45;4.50;;;;;;;;;;2031207;29;20024;-90
2022/09/15 05:41:24;;;;;;;7.10;4.10;;;;;;;;;;2023205;29;20142;-90
2022/09/15 05:42:24;;;;;;;5.07;4.15;;;;;;;;;;2031190;29;20435;-90
2022/09/15 05:43:28;;;;;;;6.47;4.05;;;;;;;;;;2039509;29;20028;-90
2022/09/15 05:44:30;;;;;;;5.65;4.32;;;;;;;;;;2039601;29;20432;-91
2022/09/15 05:45:30;;;;;;;6.20;4.38;;;;;;;;;;2039386;29;20517;-91
2022/09/15 05:46:31;;;;;;;4.15;3.58;;;;;;;;;;2039515;29;20027;-90
2022/09/15 05:47:31;;;;;;;3.55;3.05;;;;;;;;;;2038851;29;20083;-89
2022/09/15 05:48:33;;;;;;;3.55;3.20;;;;;;;;;;2039067;29;20039;-90
2022/09/15 05:49:37;;;;;;;4.57;3.60;;;;;;;;;;1833094;29;10268333;-91
2022/09/15 05:50:38;;;;;;;4.55;3.72;;;;;;;;;;2039810;29;20261;-91
2022/09/15 05:51:39;;;;;;;4.90;4.13;;;;;;;;;;2031069;29;20043;-91
2022/09/15 05:52:39;;;;;;;6.43;4.38;;;;;;;;;;2031203;29;20079;-91
2022/09/15 05:53:40;;;;;;;5.78;3.78;;;;;;;;;;2038684;29;20027;-90
2022/09/15 05:54:40;;;;;;;4.65;3.95;;;;;;;;;;2038748;29;20122;-90
2022/09/15 05:55:40;;;;;;;4.82;4.03;;;;;;;;;;2023145;29;20572;-90
2022/09/15 05:56:41;;;;;;;4.20;3.70;;;;;;;;;;2030967;29;20035;-90
2022/09/15 05:57:41;;;;;;;5.95;3.72;;;;;;;;;;2038755;29;20039;-90
2022/09/15 05:58:44;;;;;;;4.20;3.50;;;;;;;;;;2030816;29;20028;-91
2022/09/15 05:59:44;;;;;;;5.70;4.13;;;;;;;;;;2031219;29;20453;-89
2022/09/15 06:00:45;;;;;;;5.82;3.88;;;;;;;;;;1698703;29;10001470;-90
2022/09/15 06:01:45;;;;;;;5.07;3.50;;;;;;;;;;2038674;29;20084;-90
2022/09/15 06:02:46;;;;;;;4.20;3.80;;;;;;;;;;2039266;29;20530;-90
2022/09/15 06:03:47;;;;;;;4.22;3.80;;;;;;;;;;2038776;29;20027;-90
2022/09/15 06:04:47;;;;;;;3.63;3.00;;;;;;;;;;2038980;29;20443;-90
2022/09/15 06:05:48;;;;;;;7.13;4.25;;;;;;;;;;2039371;29;20030;-89
2022/09/15 06:06:49;;;;;;;6.35;3.60;;;;;;;;;;2030881;29;20020;-89
2022/09/15 06:07:53;;;;;;;7.07;3.80;;;;;;;;;;2030957;29;20075;-90
2022/09/15 06:08:56;;;;;;;8.15;5.50;;;;;;;;;;2039221;29;20027;-90
2022/09/15 06:09:56;;;;;;;7.40;5.03;;;;;;;;;;2030751;29;20042;-90
2022/09/15 06:11:27;;;;;;;7.78;5.13;;;;;;;;;;2030921;29;20098;-90
2022/09/15 06:12:27;;;;;;;10.82;6.28;;;;;;;;;;2014356;29;20117;-90
2022/09/15 06:13:28;;;;;;;6.88;4.70;;;;;;;;;;2023077;29;20029;-90
2022/09/15 06:14:28;;;;;;;8.18;5.47;;;;;;;;;;2030760;29;20135;-90
2022/09/15 06:15:30;;;;;;;10.07;5.50;;;;;;;;;;2030808;29;20032;-90
2022/09/15 06:16:32;;;;;;;8.25;5.60;;;;;;;;;;2031107;29;20039;-90
2022/09/15 06:17:32;;;;;;;6.95;5.68;;;;;;;;;;2039428;29;20464;-90
2022/09/15 06:18:36;;;;;;;5.68;4.05;;;;;;;;;;2039218;29;20145;-90
2022/09/15 06:19:36;;;;;;;9.43;4.35;;;;;;;;;;2039557;29;20036;-90
2022/09/15 06:20:41;;;;;;;5.72;4.18;;;;;;;;;;2030652;29;20451;-90
2022/09/15 06:21:41;;;;;;;6.50;4.38;;;;;;;;;;2031439;29;20035;-90
2022/09/15 06:22:42;;;;;;;6.90;3.72;;;;;;;;;;2039241;29;20024;-91
2022/09/15 06:23:43;;;;;;;6.10;2.97;;;;;;;;;;2038626;29;20122;-91
2022/09/15 06:24:43;;;;;;;6.70;3.40;;;;;;;;;;2038700;29;20063;-90
2022/09/15 06:26:17;;;;;;;7.57;3.40;;;;;;;;;;2038846;29;20032;-90